sensor_id;sensor_type;location;lat;lon;timestamp;temperature;humidity
54832;DHT22;40730;53.068;6.572;2022-11-15T00:00:33;7.50;99.90
54832;DHT22;40730;53.068;6.572;2022-11-15T00:02:59;7.40;99.90
54832;DHT22;40730;53.068;6.572;2022-11-15T00:05:25;7.30;99.90
54832;DHT22;40730;53.068;6.572;2022-11-15T00:07:50;7.20;99.90
54832;DHT22;40730;53.068;6.572;2022-11-15T00:10:16;7.20;99.90
54832;DHT22;40730;53.068;6.572;2022-11-15T00:12:42;7.10;99.90
54832;DHT22;40730;53.068;6.572;2022-11-15T00:15:08;7.00;99.90
54832;DHT22;40730;53.068;6.572;2022-11-15T00:17:33;7.00;99.90
54832;DHT22;40730;53.068;6.572;2022-11-15T00:19:59;7.00;99.90
54832;DHT22;40730;53.068;6.572;2022-11-15T00:22:24;6.90;99.90
54832;DHT22;40730;53.068;6.572;2022-11-15T00:24:50;6.90;99.90
54832;DHT22;40730;53.068;6.572;2022-11-15T00:27:15;6.90;99.90
54832;DHT22;40730;53.068;6.572;2022-11-15T00:29:41;6.90;99.90
54832;DHT22;40730;53.068;6.572;2022-11-15T00:32:10;6.90;99.90
54832;DHT22;40730;53.068;6.572;2022-11-15T00:34:36;7.00;99.90
54832;DHT22;40730;53.068;6.572;2022-11-15T00:37:01;7.00;99.90
54832;DHT22;40730;53.068;6.572;2022-11-15T00:39:27;7.10;99.90
54832;DHT22;40730;53.068;6.572;2022-11-15T00:41:52;7.10;99.90
54832;DHT22;40730;53.068;6.572;2022-11-15T00:44:18;7.10;99.90
54832;DHT22;40730;53.068;6.572;2022-11-15T00:46:44;7.20;99.90
54832;DHT22;40730;53.068;6.572;2022-11-15T00:49:09;7.20;99.90
54832;DHT22;40730;53.068;6.572;2022-11-15T00:51:35;7.30;99.90
54832;DHT22;40730;53.068;6.572;2022-11-15T00:54:00;7.30;99.90
54832;DHT22;40730;53.068;6.572;2022-11-15T00:56:26;7.40;99.90
54832;DHT22;40730;53.068;6.572;2022-11-15T00:58:52;7.40;99.90
54832;DHT22;40730;53.068;6.572;2022-11-15T01:01:18;7.40;99.90
54832;DHT22;40730;53.068;6.572;2022-11-15T01:03:43;7.40;99.90
54832;DHT22;40730;53.068;6.572;2022-11-15T01:06:09;7.40;99.90
54832;DHT22;40730;53.068;6.572;2022-11-15T01:08:35;7.40;99.90
54832;DHT22;40730;53.068;6.572;2022-11-15T01:11:07;7.40;99.90
54832;DHT22;40730;53.068;6.572;2022-11-15T01:13:36;7.40;99.90
54832;DHT22;40730;53.068;6.572;2022-11-15T01:16:16;7.40;99.90
54832;DHT22;40730;53.068;6.572;2022-11-15T01:18:44;7.40;99.90
54832;DHT22;40730;53.068;6.572;2022-11-15T01:21:13;7.40;99.90
54832;DHT22;40730;53.068;6.572;2022-11-15T01:23:39;7.40;99.90
54832;DHT22;40730;53.068;6.572;2022-11-15T01:26:07;7.50;99.90
54832;DHT22;40730;53.068;6.572;2022-11-15T01:28:36;7.50;99.90
54832;DHT22;40730;53.068;6.572;2022-11-15T01:31:06;7.50;99.90
54832;DHT22;40730;53.068;6.572;2022-11-15T01:33:34;7.50;99.90
54832;DHT22;40730;53.068;6.572;2022-11-15T01:36:07;7.40;99.90
54832;DHT22;40730;53.068;6.572;2022-11-15T01:38:33;7.50;99.90
54832;DHT22;40730;53.068;6.572;2022-11-15T01:40:59;7.40;99.90
54832;DHT22;40730;53.068;6.572;2022-11-15T01:43:36;7.40;99.90
54832;DHT22;40730;53.068;6.572;2022-11-15T01:46:27;7.40;99.90
54832;DHT22;40730;53.068;6.572;2022-11-15T01:48:58;7.40;99.90
54832;DHT22;40730;53.068;6.572;2022-11-15T01:51:26;7.40;99.90
54832;DHT22;40730;53.068;6.572;2022-11-15T01:53:56;7.40;99.90
54832;DHT22;40730;53.068;6.572;2022-11-15T01:56:25;7.50;99.90
54832;DHT22;40730;53.068;6.572;2022-11-15T01:58:53;7.40;99.90
54832;DHT22;40730;53.068;6.572;2022-11-15T02:01:21;7.40;99.90
54832;DHT22;40730;53.068;6.572;2022-11-15T02:06:26;7.40;99.90
54832;DHT22;40730;53.068;6.572;2022-11-15T02:08:52;7.40;99.90
54832;DHT22;40730;53.068;6.572;2022-11-15T02:11:18;7.40;99.90
54832;DHT22;40730;53.068;6.572;2022-11-15T02:13:44;7.40;99.90
54832;DHT22;40730;53.068;6.572;2022-11-15T02:29:23;7.40;99.90
54832;DHT22;40730;53.068;6.572;2022-11-15T02:42:41;7.40;99.90
54832;DHT22;40730;53.068;6.572;2022-11-15T02:45:31;7.40;99.90
54832;DHT22;40730;53.068;6.572;2022-11-15T02:47:59;7.40;99.90
54832;DHT22;40730;53.068;6.572;2022-11-15T02:50:29;7.40;99.90
54832;DHT22;40730;53.068;6.572;2022-11-15T02:52:55;7.50;99.90
54832;DHT22;40730;53.068;6.572;2022-11-15T02:55:33;7.40;99.90
54832;DHT22;40730;53.068;6.572;2022-11-15T03:00:35;7.50;99.90
54832;DHT22;40730;53.068;6.572;2022-11-15T03:05:53;7.50;99.90
54832;DHT22;40730;53.068;6.572;2022-11-15T03:08:40;7.50;99.90
54832;DHT22;40730;53.068;6.572;2022-11-15T03:11:13;7.50;99.90
54832;DHT22;40730;53.068;6.572;2022-11-15T03:16:58;7.60;99.90
54832;DHT22;40730;53.068;6.572;2022-11-15T03:21:59;7.60;99.90
54832;DHT22;40730;53.068;6.572;2022-11-15T03:24:28;7.60;99.90
54832;DHT22;40730;53.068;6.572;2022-11-15T03:26:56;7.60;99.90
54832;DHT22;40730;53.068;6.572;2022-11-15T03:29:29;7.60;99.90
54832;DHT22;40730;53.068;6.572;2022-11-15T03:32:03;7.60;99.90
54832;DHT22;40730;53.068;6.572;2022-11-15T03:37:00;7.70;99.90
54832;DHT22;40730;53.068;6.572;2022-11-15T03:39:27;7.70;99.90
54832;DHT22;40730;53.068;6.572;2022-11-15T03:42:17;7.70;99.90
54832;DHT22;40730;53.068;6.572;2022-11-15T03:47:32;7.80;99.90
54832;DHT22;40730;53.068;6.572;2022-11-15T03:50:05;7.80;99.90
54832;DHT22;40730;53.068;6.572;2022-11-15T03:52:33;7.80;99.90
54832;DHT22;40730;53.068;6.572;2022-11-15T03:55:00;7.80;99.90
54832;DHT22;40730;53.068;6.572;2022-11-15T03:57:27;7.80;99.90
54832;DHT22;40730;53.068;6.572;2022-11-15T03:59:52;7.90;99.90
54832;DHT22;40730;53.068;6.572;2022-11-15T04:02:18;7.80;99.90
54832;DHT22;40730;53.068;6.572;2022-11-15T04:04:44;7.90;99.90
54832;DHT22;40730;53.068;6.572;2022-11-15T04:07:09;7.90;99.90
54832;DHT22;40730;53.068;6.572;2022-11-15T04:09:35;7.90;99.90
54832;DHT22;40730;53.068;6.572;2022-11-15T04:12:20;7.90;99.90
54832;DHT22;40730;53.068;6.572;2022-11-15T04:17:54;7.90;99.90
54832;DHT22;40730;53.068;6.572;2022-11-15T04:23:11;7.90;99.90
54832;DHT22;40730;53.068;6.572;2022-11-15T04:25:57;7.90;99.90
54832;DHT22;40730;53.068;6.572;2022-11-15T04:28:23;7.90;99.90
54832;DHT22;40730;53.068;6.572;2022-11-15T04:30:49;7.90;99.90
54832;DHT22;40730;53.068;6.572;2022-11-15T04:33:15;7.90;99.90
54832;DHT22;40730;53.068;6.572;2022-11-15T04:35:42;7.90;99.90
54832;DHT22;40730;53.068;6.572;2022-11-15T04:38:10;8.00;99.90
54832;DHT22;40730;53.068;6.572;2022-11-15T04:40:37;8.00;99.90
54832;DHT22;40730;53.068;6.572;2022-11-15T04:43:03;8.00;99.90
54832;DHT22;40730;53.068;6.572;2022-11-15T04:45:29;8.00;99.90
54832;DHT22;40730;53.068;6.572;2022-11-15T04:47:55;8.00;99.90
54832;DHT22;40730;53.068;6.572;2022-11-15T04:50:20;8.10;99.90
54832;DHT22;40730;53.068;6.572;2022-11-15T04:52:53;8.10;99.90
54832;DHT22;40730;53.068;6.572;2022-11-15T04:55:19;8.10;99.90
54832;DHT22;40730;53.068;6.572;2022-11-15T04:57:45;8.10;99.90
54832;DHT22;40730;53.068;6.572;2022-11-15T05:00:14;8.10;99.90
54832;DHT22;40730;53.068;6.572;2022-11-15T05:02:40;8.20;99.90
54832;DHT22;40730;53.068;6.572;2022-11-15T05:05:24;8.20;99.90
54832;DHT22;40730;53.068;6.572;2022-11-15T05:07:50;8.20;99.90
54832;DHT22;40730;53.068;6.572;2022-11-15T05:10:16;8.30;99.90
54832;DHT22;40730;53.068;6.572;2022-11-15T05:12:42;8.30;99.90
54832;DHT22;40730;53.068;6.572;2022-11-15T05:15:08;8.30;99.90
54832;DHT22;40730;53.068;6.572;2022-11-15T05:17:33;8.40;99.90
54832;DHT22;40730;53.068;6.572;2022-11-15T05:19:59;8.40;99.90
54832;DHT22;40730;53.068;6.572;2022-11-15T05:22:25;8.40;99.90
54832;DHT22;40730;53.068;6.572;2022-11-15T05:24:51;8.50;99.90
54832;DHT22;40730;53.068;6.572;2022-11-15T05:27:16;8.50;99.90
54832;DHT22;40730;53.068;6.572;2022-11-15T05:29:42;8.50;99.90
54832;DHT22;40730;53.068;6.572;2022-11-15T05:32:09;8.50;99.90
54832;DHT22;40730;53.068;6.572;2022-11-15T05:34:35;8.60;99.90
54832;DHT22;40730;53.068;6.572;2022-11-15T05:37:01;8.60;99.90
54832;DHT22;40730;53.068;6.572;2022-11-15T05:39:26;8.70;99.90
54832;DHT22;40730;53.068;6.572;2022-11-15T05:41:56;8.70;99.90
54832;DHT22;40730;53.068;6.572;2022-11-15T05:44:24;8.70;99.90
54832;DHT22;40730;53.068;6.572;2022-11-15T05:46:53;8.80;99.90
54832;DHT22;40730;53.068;6.572;2022-11-15T05:49:23;8.80;99.90
54832;DHT22;40730;53.068;6.572;2022-11-15T05:51:50;8.90;99.90
54832;DHT22;40730;53.068;6.572;2022-11-15T05:54:17;8.90;99.90
54832;DHT22;40730;53.068;6.572;2022-11-15T05:56:44;8.90;99.90
54832;DHT22;40730;53.068;6.572;2022-11-15T05:59:10;9.00;99.90
54832;DHT22;40730;53.068;6.572;2022-11-15T06:01:36;9.00;99.90
54832;DHT22;40730;53.068;6.572;2022-11-15T06:04:02;9.10;99.90
54832;DHT22;40730;53.068;6.572;2022-11-15T06:06:29;9.20;99.90
54832;DHT22;40730;53.068;6.572;2022-11-15T06:08:54;9.20;99.90
54832;DHT22;40730;53.068;6.572;2022-11-15T06:11:20;9.30;99.90
54832;DHT22;40730;53.068;6.572;2022-11-15T06:13:45;9.30;99.90
54832;DHT22;40730;53.068;6.572;2022-11-15T06:16:11;9.30;99.90
54832;DHT22;40730;53.068;6.572;2022-11-15T06:18:37;9.40;99.90
54832;DHT22;40730;53.068;6.572;2022-11-15T06:21:03;9.40;99.90
54832;DHT22;40730;53.068;6.572;2022-11-15T06:23:32;9.50;99.90
54832;DHT22;40730;53.068;6.572;2022-11-15T06:25:58;9.50;99.90
54832;DHT22;40730;53.068;6.572;2022-11-15T06:28:24;9.50;99.90
54832;DHT22;40730;53.068;6.572;2022-11-15T06:30:50;9.60;99.90
54832;DHT22;40730;53.068;6.572;2022-11-15T06:33:15;9.60;99.90
54832;DHT22;40730;53.068;6.572;2022-11-15T06:35:41;9.60;99.90
54832;DHT22;40730;53.068;6.572;2022-11-15T06:38:09;9.60;99.90
54832;DHT22;40730;53.068;6.572;2022-11-15T06:40:38;9.60;99.90
54832;DHT22;40730;53.068;6.572;2022-11-15T06:43:05;9.60;99.90
54832;DHT22;40730;53.068;6.572;2022-11-15T06:45:31;9.70;99.90
54832;DHT22;40730;53.068;6.572;2022-11-15T06:47:57;9.70;99.90
54832;DHT22;40730;53.068;6.572;2022-11-15T06:50:23;9.70;99.90
54832;DHT22;40730;53.068;6.572;2022-11-15T06:52:49;9.80;99.90
54832;DHT22;40730;53.068;6.572;2022-11-15T06:55:14;9.80;99.90
54832;DHT22;40730;53.068;6.572;2022-11-15T06:57:50;9.80;99.90
54832;DHT22;40730;53.068;6.572;2022-11-15T07:00:18;9.80;99.90
54832;DHT22;40730;53.068;6.572;2022-11-15T07:02:43;9.80;99.90
54832;DHT22;40730;53.068;6.572;2022-11-15T07:05:09;9.90;99.90
54832;DHT22;40730;53.068;6.572;2022-11-15T07:07:35;9.90;99.90
54832;DHT22;40730;53.068;6.572;2022-11-15T07:10:01;10.00;99.90
54832;DHT22;40730;53.068;6.572;2022-11-15T07:12:26;10.00;99.90
54832;DHT22;40730;53.068;6.572;2022-11-15T07:14:52;10.00;99.90
54832;DHT22;40730;53.068;6.572;2022-11-15T07:17:21;10.00;99.90
54832;DHT22;40730;53.068;6.572;2022-11-15T07:19:47;10.10;99.90
54832;DHT22;40730;53.068;6.572;2022-11-15T07:22:13;10.10;99.90
54832;DHT22;40730;53.068;6.572;2022-11-15T07:24:38;10.10;99.90
54832;DHT22;40730;53.068;6.572;2022-11-15T07:27:04;10.10;99.90
54832;DHT22;40730;53.068;6.572;2022-11-15T07:29:29;10.20;99.90
54832;DHT22;40730;53.068;6.572;2022-11-15T07:31:55;10.20;99.90
54832;DHT22;40730;53.068;6.572;2022-11-15T07:34:21;10.20;99.90
54832;DHT22;40730;53.068;6.572;2022-11-15T07:36:46;10.10;99.90
54832;DHT22;40730;53.068;6.572;2022-11-15T07:39:12;10.20;99.90
54832;DHT22;40730;53.068;6.572;2022-11-15T07:41:38;10.20;99.90
54832;DHT22;40730;53.068;6.572;2022-11-15T07:44:04;10.20;99.90
54832;DHT22;40730;53.068;6.572;2022-11-15T07:46:30;10.30;99.90
54832;DHT22;40730;53.068;6.572;2022-11-15T07:48:56;10.30;99.90
54832;DHT22;40730;53.068;6.572;2022-11-15T07:51:21;10.40;99.90
54832;DHT22;40730;53.068;6.572;2022-11-15T07:53:47;10.40;99.90
54832;DHT22;40730;53.068;6.572;2022-11-15T07:56:13;10.40;99.90
54832;DHT22;40730;53.068;6.572;2022-11-15T07:58:38;10.40;99.90
54832;DHT22;40730;53.068;6.572;2022-11-15T08:01:05;10.50;99.90
54832;DHT22;40730;53.068;6.572;2022-11-15T08:03:32;10.50;99.90
54832;DHT22;40730;53.068;6.572;2022-11-15T08:05:58;10.50;99.90
54832;DHT22;40730;53.068;6.572;2022-11-15T08:08:24;10.50;99.90
54832;DHT22;40730;53.068;6.572;2022-11-15T08:10:49;10.50;99.90
54832;DHT22;40730;53.068;6.572;2022-11-15T08:13:16;10.50;99.90
54832;DHT22;40730;53.068;6.572;2022-11-15T08:15:41;10.60;99.90
54832;DHT22;40730;53.068;6.572;2022-11-15T08:18:15;10.60;99.90
54832;DHT22;40730;53.068;6.572;2022-11-15T08:20:42;10.60;99.90
54832;DHT22;40730;53.068;6.572;2022-11-15T08:23:09;10.70;99.90
54832;DHT22;40730;53.068;6.572;2022-11-15T08:25:35;10.70;99.90
54832;DHT22;40730;53.068;6.572;2022-11-15T08:28:04;10.70;99.90
54832;DHT22;40730;53.068;6.572;2022-11-15T08:30:34;10.80;99.90
54832;DHT22;40730;53.068;6.572;2022-11-15T08:33:00;10.80;99.90
54832;DHT22;40730;53.068;6.572;2022-11-15T08:35:25;10.90;99.90
54832;DHT22;40730;53.068;6.572;2022-11-15T08:37:53;10.90;99.90
54832;DHT22;40730;53.068;6.572;2022-11-15T08:40:18;10.90;99.90
54832;DHT22;40730;53.068;6.572;2022-11-15T08:42:46;10.90;99.90
54832;DHT22;40730;53.068;6.572;2022-11-15T08:45:12;10.90;99.90
54832;DHT22;40730;53.068;6.572;2022-11-15T08:47:38;11.00;99.90
54832;DHT22;40730;53.068;6.572;2022-11-15T08:50:04;11.00;99.90
54832;DHT22;40730;53.068;6.572;2022-11-15T08:52:30;11.10;99.90
54832;DHT22;40730;53.068;6.572;2022-11-15T08:54:55;11.10;99.90
54832;DHT22;40730;53.068;6.572;2022-11-15T08:57:21;11.20;99.90
54832;DHT22;40730;53.068;6.572;2022-11-15T08:59:46;11.20;99.90
54832;DHT22;40730;53.068;6.572;2022-11-15T09:02:14;11.20;99.90
54832;DHT22;40730;53.068;6.572;2022-11-15T09:04:43;11.20;99.90
54832;DHT22;40730;53.068;6.572;2022-11-15T09:07:10;11.30;99.90
54832;DHT22;40730;53.068;6.572;2022-11-15T09:09:36;11.30;99.90
54832;DHT22;40730;53.068;6.572;2022-11-15T09:12:01;11.40;99.90
54832;DHT22;40730;53.068;6.572;2022-11-15T09:14:27;11.40;99.90
54832;DHT22;40730;53.068;6.572;2022-11-15T09:16:52;11.40;99.90
54832;DHT22;40730;53.068;6.572;2022-11-15T09:19:18;11.40;99.90
54832;DHT22;40730;53.068;6.572;2022-11-15T09:21:43;11.40;99.90
54832;DHT22;40730;53.068;6.572;2022-11-15T09:24:09;11.40;99.90
54832;DHT22;40730;53.068;6.572;2022-11-15T09:26:35;11.50;99.90
54832;DHT22;40730;53.068;6.572;2022-11-15T09:29:00;11.60;99.90
54832;DHT22;40730;53.068;6.572;2022-11-15T09:31:27;11.50;99.90
54832;DHT22;40730;53.068;6.572;2022-11-15T09:33:53;11.60;99.90
54832;DHT22;40730;53.068;6.572;2022-11-15T09:36:18;11.60;99.90
54832;DHT22;40730;53.068;6.572;2022-11-15T09:38:44;11.60;99.90
54832;DHT22;40730;53.068;6.572;2022-11-15T09:46:28;11.70;99.90
54832;DHT22;40730;53.068;6.572;2022-11-15T09:48:57;11.70;99.90
54832;DHT22;40730;53.068;6.572;2022-11-15T09:51:32;11.70;99.90
54832;DHT22;40730;53.068;6.572;2022-11-15T09:56:32;11.70;99.90
54832;DHT22;40730;53.068;6.572;2022-11-15T10:04:29;11.80;99.90
54832;DHT22;40730;53.068;6.572;2022-11-15T10:09:42;11.90;99.90
54832;DHT22;40730;53.068;6.572;2022-11-15T10:12:12;11.90;99.90
54832;DHT22;40730;53.068;6.572;2022-11-15T10:14:38;12.00;99.90
54832;DHT22;40730;53.068;6.572;2022-11-15T10:19:52;12.00;99.90
54832;DHT22;40730;53.068;6.572;2022-11-15T10:22:39;12.00;99.90
54832;DHT22;40730;53.068;6.572;2022-11-15T10:27:34;12.00;99.90
54832;DHT22;40730;53.068;6.572;2022-11-15T10:30:00;12.00;99.90
54832;DHT22;40730;53.068;6.572;2022-11-15T10:32:25;12.00;99.90
54832;DHT22;40730;53.068;6.572;2022-11-15T10:34:51;12.00;99.90
54832;DHT22;40730;53.068;6.572;2022-11-15T10:37:31;12.00;99.90
54832;DHT22;40730;53.068;6.572;2022-11-15T10:40:23;12.00;99.90
54832;DHT22;40730;53.068;6.572;2022-11-15T10:45:35;11.90;99.90
54832;DHT22;40730;53.068;6.572;2022-11-15T10:50:43;11.90;99.90
54832;DHT22;40730;53.068;6.572;2022-11-15T10:55:47;11.80;99.90
54832;DHT22;40730;53.068;6.572;2022-11-15T11:00:47;11.80;99.90
54832;DHT22;40730;53.068;6.572;2022-11-15T11:03:36;11.90;99.90
54832;DHT22;40730;53.068;6.572;2022-11-15T11:08:34;12.40;99.90
54832;DHT22;40730;53.068;6.572;2022-11-15T11:11:02;12.40;99.90
54832;DHT22;40730;53.068;6.572;2022-11-15T11:13:39;12.40;99.90
54832;DHT22;40730;53.068;6.572;2022-11-15T11:24:48;13.70;99.90
54832;DHT22;40730;53.068;6.572;2022-11-15T11:41:37;15.00;99.90
54832;DHT22;40730;53.068;6.572;2022-11-15T11:47:11;15.00;99.90
54832;DHT22;40730;53.068;6.572;2022-11-15T11:52:38;14.50;99.90
54832;DHT22;40730;53.068;6.572;2022-11-15T11:55:36;14.30;99.90
54832;DHT22;40730;53.068;6.572;2022-11-15T11:58:29;14.30;99.90
54832;DHT22;40730;53.068;6.572;2022-11-15T12:04:19;14.30;99.90
54832;DHT22;40730;53.068;6.572;2022-11-15T12:07:00;14.10;99.90
54832;DHT22;40730;53.068;6.572;2022-11-15T12:09:33;13.80;99.90
54832;DHT22;40730;53.068;6.572;2022-11-15T12:17:12;14.00;99.90
54832;DHT22;40730;53.068;6.572;2022-11-15T12:19:41;14.10;99.90
54832;DHT22;40730;53.068;6.572;2022-11-15T12:22:21;14.10;99.90
54832;DHT22;40730;53.068;6.572;2022-11-15T12:25:50;13.90;99.90
54832;DHT22;40730;53.068;6.572;2022-11-15T12:28:27;13.80;99.90
54832;DHT22;40730;53.068;6.572;2022-11-15T12:31:00;13.70;99.90
54832;DHT22;40730;53.068;6.572;2022-11-15T12:36:01;13.50;99.90
54832;DHT22;40730;53.068;6.572;2022-11-15T12:41:20;13.30;99.90
54832;DHT22;40730;53.068;6.572;2022-11-15T12:43:47;13.20;99.90
54832;DHT22;40730;53.068;6.572;2022-11-15T12:48:49;13.30;99.90
54832;DHT22;40730;53.068;6.572;2022-11-15T12:51:15;13.50;99.90
54832;DHT22;40730;53.068;6.572;2022-11-15T12:53:41;13.60;99.90
54832;DHT22;40730;53.068;6.572;2022-11-15T13:06:50;14.10;99.90
54832;DHT22;40730;53.068;6.572;2022-11-15T13:11:55;13.80;99.90
54832;DHT22;40730;53.068;6.572;2022-11-15T13:17:25;13.70;99.90
54832;DHT22;40730;53.068;6.572;2022-11-15T13:19:57;13.80;99.90
54832;DHT22;40730;53.068;6.572;2022-11-15T13:22:24;13.80;99.90
54832;DHT22;40730;53.068;6.572;2022-11-15T13:25:19;13.80;99.90
54832;DHT22;40730;53.068;6.572;2022-11-15T13:27:48;13.80;99.90
54832;DHT22;40730;53.068;6.572;2022-11-15T13:30:26;13.70;99.90
54832;DHT22;40730;53.068;6.572;2022-11-15T13:32:53;13.60;99.90
54832;DHT22;40730;53.068;6.572;2022-11-15T13:35:38;13.60;99.90
54832;DHT22;40730;53.068;6.572;2022-11-15T13:38:05;13.50;99.90
54832;DHT22;40730;53.068;6.572;2022-11-15T13:40:37;13.40;99.90
54832;DHT22;40730;53.068;6.572;2022-11-15T13:48:35;13.20;99.90
54832;DHT22;40730;53.068;6.572;2022-11-15T13:51:08;13.10;99.90
54832;DHT22;40730;53.068;6.572;2022-11-15T13:53:36;13.10;99.90
54832;DHT22;40730;53.068;6.572;2022-11-15T13:56:03;13.00;99.90
54832;DHT22;40730;53.068;6.572;2022-11-15T13:58:30;13.10;99.90
54832;DHT22;40730;53.068;6.572;2022-11-15T14:01:01;13.00;99.90
54832;DHT22;40730;53.068;6.572;2022-11-15T14:03:32;13.00;99.90
54832;DHT22;40730;53.068;6.572;2022-11-15T14:06:10;13.00;99.90
54832;DHT22;40730;53.068;6.572;2022-11-15T14:08:39;13.00;99.90
54832;DHT22;40730;53.068;6.572;2022-11-15T14:11:25;12.90;99.90
54832;DHT22;40730;53.068;6.572;2022-11-15T14:16:40;12.80;99.90
54832;DHT22;40730;53.068;6.572;2022-11-15T14:19:32;12.80;99.90
54832;DHT22;40730;53.068;6.572;2022-11-15T14:37:00;12.30;99.90
54832;DHT22;40730;53.068;6.572;2022-11-15T18:46:24;10.70;99.90
54832;DHT22;40730;53.068;6.572;2022-11-15T19:01:05;10.80;99.90
54832;DHT22;40730;53.068;6.572;2022-11-15T19:47:17;11.00;99.90
54832;DHT22;40730;53.068;6.572;2022-11-15T20:04:04;11.30;99.90
54832;DHT22;40730;53.068;6.572;2022-11-15T20:52:00;10.60;99.90
54832;DHT22;40730;53.068;6.572;2022-11-15T21:28:21;10.60;99.90
54832;DHT22;40730;53.068;6.572;2022-11-15T21:30:58;10.30;99.90
54832;DHT22;40730;53.068;6.572;2022-11-15T21:33:24;10.40;99.90
54832;DHT22;40730;53.068;6.572;2022-11-15T21:35:53;10.30;99.90
54832;DHT22;40730;53.068;6.572;2022-11-15T21:38:19;10.30;99.90
54832;DHT22;40730;53.068;6.572;2022-11-15T21:40:48;10.20;99.90
54832;DHT22;40730;53.068;6.572;2022-11-15T21:43:14;10.10;99.90
54832;DHT22;40730;53.068;6.572;2022-11-15T21:45:39;10.10;99.90
54832;DHT22;40730;53.068;6.572;2022-11-15T21:48:05;10.10;99.90
54832;DHT22;40730;53.068;6.572;2022-11-15T21:50:31;10.00;99.90
54832;DHT22;40730;53.068;6.572;2022-11-15T21:52:56;10.10;99.90
54832;DHT22;40730;53.068;6.572;2022-11-15T21:55:22;10.00;99.90
54832;DHT22;40730;53.068;6.572;2022-11-15T21:57:47;10.00;99.90
54832;DHT22;40730;53.068;6.572;2022-11-15T22:00:13;10.00;99.90
54832;DHT22;40730;53.068;6.572;2022-11-15T22:02:58;10.10;99.90
54832;DHT22;40730;53.068;6.572;2022-11-15T22:05:24;10.00;99.90
54832;DHT22;40730;53.068;6.572;2022-11-15T22:07:49;10.10;99.90
54832;DHT22;40730;53.068;6.572;2022-11-15T22:10:15;10.10;99.90
54832;DHT22;40730;53.068;6.572;2022-11-15T22:12:40;10.10;99.90
54832;DHT22;40730;53.068;6.572;2022-11-15T22:15:06;10.10;99.90
54832;DHT22;40730;53.068;6.572;2022-11-15T22:17:32;10.10;99.90
54832;DHT22;40730;53.068;6.572;2022-11-15T22:20:16;10.10;99.90
54832;DHT22;40730;53.068;6.572;2022-11-15T22:22:42;10.10;99.90
54832;DHT22;40730;53.068;6.572;2022-11-15T22:25:08;10.10;99.90
54832;DHT22;40730;53.068;6.572;2022-11-15T22:27:34;10.10;99.90
54832;DHT22;40730;53.068;6.572;2022-11-15T22:29:59;10.10;99.90
54832;DHT22;40730;53.068;6.572;2022-11-15T22:32:25;10.10;99.90
54832;DHT22;40730;53.068;6.572;2022-11-15T22:34:50;10.20;99.90
54832;DHT22;40730;53.068;6.572;2022-11-15T22:37:16;10.20;99.90
54832;DHT22;40730;53.068;6.572;2022-11-15T22:39:41;10.20;99.90
54832;DHT22;40730;53.068;6.572;2022-11-15T22:42:07;10.20;99.90
54832;DHT22;40730;53.068;6.572;2022-11-15T22:44:32;10.20;99.90
54832;DHT22;40730;53.068;6.572;2022-11-15T22:46:58;10.20;99.90
54832;DHT22;40730;53.068;6.572;2022-11-15T22:49:24;10.20;99.90
54832;DHT22;40730;53.068;6.572;2022-11-15T22:51:49;10.20;99.90
54832;DHT22;40730;53.068;6.572;2022-11-15T22:54:15;10.20;99.90
54832;DHT22;40730;53.068;6.572;2022-11-15T22:56:40;10.20;99.90
54832;DHT22;40730;53.068;6.572;2022-11-15T22:59:06;10.20;99.90
54832;DHT22;40730;53.068;6.572;2022-11-15T23:01:32;10.30;99.90
54832;DHT22;40730;53.068;6.572;2022-11-15T23:03:58;10.20;99.90
54832;DHT22;40730;53.068;6.572;2022-11-15T23:06:23;10.30;99.90
54832;DHT22;40730;53.068;6.572;2022-11-15T23:08:49;10.30;99.90
54832;DHT22;40730;53.068;6.572;2022-11-15T23:11:14;10.30;99.90
54832;DHT22;40730;53.068;6.572;2022-11-15T23:13:59;10.30;99.90
54832;DHT22;40730;53.068;6.572;2022-11-15T23:16:24;10.30;99.90
54832;DHT22;40730;53.068;6.572;2022-11-15T23:18:58;10.30;99.90
54832;DHT22;40730;53.068;6.572;2022-11-15T23:21:27;10.10;99.90
54832;DHT22;40730;53.068;6.572;2022-11-15T23:24:12;10.30;99.90
54832;DHT22;40730;53.068;6.572;2022-11-15T23:26:39;10.40;99.90
54832;DHT22;40730;53.068;6.572;2022-11-15T23:29:06;10.40;99.90
54832;DHT22;40730;53.068;6.572;2022-11-15T23:31:32;10.40;99.90
54832;DHT22;40730;53.068;6.572;2022-11-15T23:34:17;10.40;99.90
54832;DHT22;40730;53.068;6.572;2022-11-15T23:36:42;10.40;99.90
54832;DHT22;40730;53.068;6.572;2022-11-15T23:39:08;10.40;99.90
54832;DHT22;40730;53.068;6.572;2022-11-15T23:41:34;10.40;99.90
54832;DHT22;40730;53.068;6.572;2022-11-15T23:44:00;10.50;99.90
54832;DHT22;40730;53.068;6.572;2022-11-15T23:46:25;10.50;99.90
54832;DHT22;40730;53.068;6.572;2022-11-15T23:48:51;10.40;99.90
54832;DHT22;40730;53.068;6.572;2022-11-15T23:51:17;10.40;99.90
54832;DHT22;40730;53.068;6.572;2022-11-15T23:53:42;10.40;99.90
54832;DHT22;40730;53.068;6.572;2022-11-15T23:56:13;10.40;99.90
54832;DHT22;40730;53.068;6.572;2022-11-15T23:58:40;10.40;99.90
